Time;durP1;ratioP1;P1;durP2;ratioP2;P2;SDS_P1;SDS_P2;PMS_P1;PMS_P2;Temp;Humidity;BMP_temperature;BMP_pressure;BME280_temperature;BME280_humidity;BME280_pressure;Samples;Min_cycle;Max_cycle;Signal;HPM_P1;HPM_P2
2023/10/27 00:00:43;;;;;;;81.53;12.55;;;;;12.30;94153.00;;;;8432961;28;20630;-61
2023/10/27 00:04:48;;;;;;;63.45;12.57;;;;;12.20;94147.00;;;;8432633;28;20217;-61
2023/10/27 00:08:51;;;;;;;61.70;12.40;;;;;12.20;94157.00;;;;8433892;28;20219;-61
2023/10/27 00:12:56;;;;;;;69.13;14.23;;;;;12.20;94146.00;;;;8432244;28;20235;-61
2023/10/27 00:16:59;;;;;;;60.75;13.27;;;;;12.20;94140.00;;;;8432838;28;20203;-62
2023/10/27 00:21:04;;;;;;;60.05;13.25;;;;;12.20;94128.00;;;;8432774;28;20225;-62
2023/10/27 00:25:08;;;;;;;55.35;13.98;;;;;12.20;94129.00;;;;8432215;28;20671;-62
2023/10/27 00:29:12;;;;;;;56.45;13.02;;;;;12.20;94123.00;;;;8432194;28;20480;-62
2023/10/27 00:33:15;;;;;;;51.17;13.57;;;;;12.20;94123.00;;;;8432043;28;20282;-62
2023/10/27 00:37:23;;;;;;;57.30;14.30;;;;;12.20;94136.00;;;;8432341;28;20196;-62
2023/10/27 00:41:28;;;;;;;50.67;13.43;;;;;12.20;94130.00;;;;8432265;28;20290;-62
2023/10/27 00:45:33;;;;;;;51.65;13.45;;;;;12.20;94122.00;;;;8430172;28;20259;-62
2023/10/27 00:49:36;;;;;;;63.05;13.82;;;;;12.20;94117.00;;;;8432224;28;20229;-62
2023/10/27 00:53:40;;;;;;;51.22;14.35;;;;;12.20;94120.00;;;;8431116;28;20202;-63
2023/10/27 00:57:44;;;;;;;49.10;13.43;;;;;12.20;94128.00;;;;8431939;28;22102;-62
2023/10/27 01:01:48;;;;;;;60.95;14.38;;;;;12.20;94130.00;;;;8432138;28;20739;-62
2023/10/27 01:05:51;;;;;;;55.95;14.23;;;;;12.20;94135.00;;;;8429998;28;20680;-63
2023/10/27 01:09:54;;;;;;;60.28;13.68;;;;;12.20;94131.00;;;;8431650;28;20195;-64
2023/10/27 01:13:57;;;;;;;90.53;15.95;;;;;12.20;94125.00;;;;8430798;28;20230;-63
2023/10/27 01:18:03;;;;;;;61.50;14.00;;;;;12.20;94128.00;;;;8431621;28;20306;-63
2023/10/27 01:22:06;;;;;;;75.30;14.43;;;;;12.20;94126.00;;;;8431568;28;20612;-63
2023/10/27 01:26:11;;;;;;;73.53;15.77;;;;;12.20;94117.00;;;;8431665;28;20532;-63
2023/10/27 01:30:14;;;;;;;54.03;13.30;;;;;12.20;94119.00;;;;8431483;28;20230;-63
2023/10/27 01:34:19;;;;;;;58.63;12.65;;;;;12.20;94114.00;;;;8431128;28;20632;-64
2023/10/27 01:38:22;;;;;;;40.17;11.13;;;;;12.20;94107.00;;;;8431197;28;20723;-63
2023/10/27 01:42:36;;;;;;;49.40;11.38;;;;;12.20;94106.00;;;;8431544;28;20517;-62
2023/10/27 01:46:39;;;;;;;50.20;12.43;;;;;12.30;94107.00;;;;8430738;28;20189;-62
2023/10/27 01:50:42;;;;;;;13.13;4.90;;;;;12.30;94112.00;;;;8431344;28;20272;-63
2023/10/27 01:54:45;;;;;;;8.82;3.40;;;;;12.20;94105.00;;;;8431084;28;20286;-63
2023/10/27 01:58:51;;;;;;;7.40;2.97;;;;;12.00;94113.00;;;;8430873;28;20314;-63
2023/10/27 02:02:54;;;;;;;6.25;3.55;;;;;12.00;94107.00;;;;8430281;28;20637;-63
2023/10/27 02:06:58;;;;;;;10.77;3.17;;;;;11.90;94102.00;;;;8430979;28;20621;-63
2023/10/27 02:11:01;;;;;;;12.10;3.58;;;;;11.90;94104.00;;;;8430262;28;20195;-63
2023/10/27 02:15:08;;;;;;;8.07;3.53;;;;;11.90;94116.00;;;;8430774;28;20237;-63
2023/10/27 02:19:13;;;;;;;9.90;3.20;;;;;11.90;94108.00;;;;8436250;28;20271;-63
2023/10/27 02:23:17;;;;;;;7.15;3.30;;;;;11.80;94105.00;;;;8437293;28;20286;-63
2023/10/27 02:27:20;;;;;;;9.70;4.18;;;;;11.70;94092.00;;;;8436173;28;20191;-63
2023/10/27 02:31:25;;;;;;;10.63;4.55;;;;;11.70;94096.00;;;;8436290;28;20278;-63
2023/10/27 02:35:28;;;;;;;13.10;3.92;;;;;11.60;94110.00;;;;8435441;28;20195;-63
2023/10/27 02:39:34;;;;;;;7.13;3.83;;;;;11.50;94104.00;;;;8435678;28;20230;-63
2023/10/27 02:43:38;;;;;;;15.02;4.40;;;;;11.40;94102.00;;;;8435345;28;20180;-63
2023/10/27 02:47:42;;;;;;;6.40;2.80;;;;;11.30;94102.00;;;;8435451;28;20202;-63
2023/10/27 02:51:46;;;;;;;7.32;3.15;;;;;11.30;94102.00;;;;8435172;28;20210;-66
2023/10/27 02:55:49;;;;;;;8.80;3.22;;;;;11.30;94099.00;;;;8435778;28;20565;-64
2023/10/27 02:59:52;;;;;;;9.38;2.80;;;;;11.30;94117.00;;;;8434630;28;20235;-64
2023/10/27 03:03:56;;;;;;;9.18;2.97;;;;;11.30;94116.00;;;;8432274;22;20334;-65
2023/10/27 03:07:59;;;;;;;7.40;2.90;;;;;11.30;94107.00;;;;8388156;28;20683;-65
2023/10/27 03:12:02;;;;;;;10.02;3.25;;;;;11.40;94100.00;;;;8388295;28;20210;-64
2023/10/27 03:16:06;;;;;;;11.38;3.25;;;;;11.40;94113.00;;;;8384419;28;20279;-64
2023/10/27 03:20:12;;;;;;;7.63;3.35;;;;;11.40;94105.00;;;;8387540;28;20227;-67
2023/10/27 03:24:16;;;;;;;10.50;3.80;;;;;11.40;94107.00;;;;8385415;28;20198;-65
2023/10/27 03:28:20;;;;;;;14.75;4.05;;;;;11.40;94104.00;;;;8383390;28;20204;-64
2023/10/27 03:32:23;;;;;;;14.68;4.13;;;;;11.40;94099.00;;;;8378460;28;20226;-64
2023/10/27 03:36:28;;;;;;;11.07;4.60;;;;;11.50;94107.00;;;;8383800;28;20623;-64
2023/10/27 03:40:32;;;;;;;14.10;4.93;;;;;11.50;94083.00;;;;8408320;28;20629;-66
2023/10/27 03:44:35;;;;;;;16.63;4.60;;;;;11.50;94086.00;;;;8382456;28;20257;-68
2023/10/27 03:48:38;;;;;;;15.85;4.80;;;;;11.50;94083.00;;;;8394017;28;20640;-69
2023/10/27 03:52:43;;;;;;;18.63;5.25;;;;;11.50;94077.00;;;;8393607;28;20206;-69
2023/10/27 03:56:46;;;;;;;14.80;5.50;;;;;11.50;94073.00;;;;8392586;28;20203;-68
2023/10/27 04:00:50;;;;;;;20.02;5.35;;;;;11.60;94072.00;;;;8386770;28;20639;-69
2023/10/27 04:04:53;;;;;;;14.02;5.15;;;;;11.60;94086.00;;;;8363380;28;20314;-69
2023/10/27 04:08:58;;;;;;;15.57;5.47;;;;;11.60;94104.00;;;;8360911;28;20211;-70
2023/10/27 04:13:01;;;;;;;13.38;4.45;;;;;11.50;94111.00;;;;8359740;28;20217;-69
2023/10/27 04:17:04;;;;;;;17.50;3.78;;;;;11.30;94118.00;;;;8356409;28;20276;-69
2023/10/27 04:21:07;;;;;;;17.05;4.28;;;;;11.20;94115.00;;;;8359313;28;20243;-70
2023/10/27 04:25:12;;;;;;;17.27;4.68;;;;;11.10;94122.00;;;;8364056;28;20285;-70
2023/10/27 04:29:15;;;;;;;18.40;4.28;;;;;11.00;94117.00;;;;8361942;28;20216;-68
2023/10/27 04:33:19;;;;;;;21.25;3.95;;;;;10.90;94103.00;;;;8364668;28;20658;-68
2023/10/27 04:37:23;;;;;;;20.50;4.00;;;;;10.90;94104.00;;;;8362999;28;20845;-70
2023/10/27 04:41:30;;;;;;;20.83;4.03;;;;;10.80;94112.00;;;;8353071;28;20234;-68
2023/10/27 04:45:33;;;;;;;23.27;4.75;;;;;10.80;94113.00;;;;8355065;28;20197;-69
2023/10/27 04:49:39;;;;;;;17.92;3.70;;;;;10.80;94101.00;;;;8370228;28;20206;-68
2023/10/27 04:53:45;;;;;;;17.08;4.18;;;;;10.70;94101.00;;;;8359653;28;20928;-68
2023/10/27 04:57:49;;;;;;;18.55;4.10;;;;;10.70;94077.00;;;;8351236;28;20200;-68
2023/10/27 05:01:53;;;;;;;13.45;3.45;;;;;10.80;94085.00;;;;8356783;28;20624;-69
2023/10/27 05:05:56;;;;;;;17.48;3.50;;;;;10.70;94098.00;;;;8351502;28;20288;-68
2023/10/27 05:10:00;;;;;;;15.18;3.40;;;;;10.70;94087.00;;;;8358428;28;20203;-69
2023/10/27 05:14:04;;;;;;;16.95;3.28;;;;;10.80;94085.00;;;;8360102;28;21997;-67
2023/10/27 05:18:07;;;;;;;18.08;3.38;;;;;10.80;94099.00;;;;8364436;28;20191;-69
2023/10/27 05:22:12;;;;;;;11.05;3.08;;;;;10.80;94104.00;;;;8365945;28;20224;-67
2023/10/27 05:26:15;;;;;;;14.50;3.25;;;;;10.80;94097.00;;;;8360139;28;20233;-69
2023/10/27 05:30:20;;;;;;;19.02;3.53;;;;;10.80;94093.00;;;;8372234;28;20214;-68
2023/10/27 05:34:23;;;;;;;10.43;3.30;;;;;10.90;94095.00;;;;8354133;28;20203;-67
2023/10/27 05:38:26;;;;;;;23.30;3.97;;;;;11.00;94097.00;;;;8365911;28;20708;-69
2023/10/27 05:42:30;;;;;;;19.45;3.95;;;;;11.00;94105.00;;;;8358094;28;20345;-68
2023/10/27 05:46:35;;;;;;;12.60;3.35;;;;;10.90;94111.00;;;;8360610;28;20637;-68
2023/10/27 05:50:38;;;;;;;13.82;2.58;;;;;10.90;94109.00;;;;8368296;28;20203;-69
2023/10/27 05:54:43;;;;;;;9.70;2.40;;;;;10.80;94100.00;;;;8370733;28;20203;-67
2023/10/27 05:58:49;;;;;;;10.27;2.30;;;;;10.80;94093.00;;;;8373503;28;20711;-67
2023/10/27 06:02:54;;;;;;;9.18;2.10;;;;;10.80;94106.00;;;;8361842;28;20252;-67
2023/10/27 06:06:57;;;;;;;11.15;2.50;;;;;10.70;94109.00;;;;8374778;28;20227;-67
2023/10/27 06:11:00;;;;;;;6.90;2.13;;;;;10.70;94114.00;;;;8361382;28;20230;-68
2023/10/27 06:15:04;;;;;;;15.27;3.75;;;;;10.70;94112.00;;;;8367445;28;20286;-66
2023/10/27 06:19:08;;;;;;;11.93;3.05;;;;;10.70;94121.00;;;;8367993;28;20641;-67
2023/10/27 06:23:11;;;;;;;13.75;2.60;;;;;10.70;94137.00;;;;8379191;28;20325;-66
2023/10/27 06:27:17;;;;;;;18.85;2.92;;;;;10.70;94152.00;;;;8367140;28;20200;-67
2023/10/27 06:31:20;;;;;;;18.58;3.22;;;;;10.70;94153.00;;;;8375299;28;20228;-68
2023/10/27 06:35:27;;;;;;;13.23;3.80;;;;;10.80;94157.00;;;;8358932;28;20273;-68
2023/10/27 06:39:30;;;;;;;19.85;6.97;;;;;10.90;94165.00;;;;8373897;28;20283;-68
2023/10/27 06:43:34;;;;;;;9.00;3.38;;;;;10.80;94169.00;;;;8354696;28;20287;-67
2023/10/27 06:47:37;;;;;;;16.75;3.55;;;;;10.80;94172.00;;;;8355186;28;20278;-67
2023/10/27 06:51:42;;;;;;;17.70;3.88;;;;;10.80;94164.00;;;;8364271;28;21376;-66
2023/10/27 06:55:46;;;;;;;13.38;3.95;;;;;10.90;94177.00;;;;8362130;28;20204;-65
2023/10/27 06:59:51;;;;;;;36.65;12.40;;;;;10.90;94185.00;;;;8361287;28;20214;-65
2023/10/27 07:03:54;;;;;;;43.40;17.67;;;;;10.90;94205.00;;;;8359804;28;20227;-66
2023/10/27 07:07:59;;;;;;;19.60;7.90;;;;;10.90;94202.00;;;;8355390;28;20211;-68
2023/10/27 07:12:03;;;;;;;55.03;21.77;;;;;11.00;94189.00;;;;8369566;28;20195;-67
2023/10/27 07:16:07;;;;;;;49.80;22.40;;;;;11.00;94197.00;;;;8360747;28;20286;-66
2023/10/27 07:20:11;;;;;;;18.63;8.82;;;;;11.00;94195.00;;;;8362401;28;20223;-65
2023/10/27 07:24:15;;;;;;;29.70;14.60;;;;;11.00;94194.00;;;;8365573;28;20676;-66
2023/10/27 07:28:19;;;;;;;29.25;12.73;;;;;11.00;94185.00;;;;8362573;28;20218;-67
2023/10/27 07:32:22;;;;;;;29.35;14.90;;;;;11.10;94186.00;;;;8362886;28;20206;-68
2023/10/27 07:36:26;;;;;;;164.27;81.97;;;;;11.10;94190.00;;;;8365198;28;20691;-67
2023/10/27 07:40:33;;;;;;;33.08;12.80;;;;;11.20;94187.00;;;;8367847;28;20628;-67
2023/10/27 07:44:36;;;;;;;186.43;76.22;;;;;11.20;94176.00;;;;8359512;28;20200;-66
2023/10/27 07:48:40;;;;;;;21.17;10.63;;;;;11.20;94185.00;;;;8368157;28;20206;-68
2023/10/27 07:52:43;;;;;;;13.48;5.57;;;;;11.30;94191.00;;;;8361635;28;20197;-68
2023/10/27 07:56:47;;;;;;;13.85;4.13;;;;;11.30;94192.00;;;;8373211;28;20189;-68
2023/10/27 08:00:52;;;;;;;34.78;15.93;;;;;11.40;94188.00;;;;8370254;28;20257;-66
2023/10/27 08:04:55;;;;;;;83.25;34.42;;;;;11.50;94194.00;;;;8362768;28;20228;-68
2023/10/27 08:08:59;;;;;;;12.80;6.53;;;;;11.70;94194.00;;;;8354036;28;20306;-67
2023/10/27 08:13:03;;;;;;;33.17;16.30;;;;;11.80;94206.00;;;;8364930;28;20192;-68
2023/10/27 08:17:06;;;;;;;14.05;5.97;;;;;11.80;94214.00;;;;8364256;28;21037;-68
2023/10/27 08:21:10;;;;;;;88.55;28.20;;;;;11.80;94217.00;;;;8368510;28;20227;-68
2023/10/27 08:25:13;;;;;;;492.42;116.13;;;;;11.80;94222.00;;;;8368989;28;20616;-69
2023/10/27 08:29:17;;;;;;;198.43;52.78;;;;;11.90;94216.00;;;;8371995;28;20264;-69
2023/10/27 08:33:21;;;;;;;194.10;62.67;;;;;11.80;94215.00;;;;8358059;28;20195;-67
2023/10/27 08:37:25;;;;;;;107.53;36.00;;;;;11.70;94219.00;;;;8363321;28;20197;-69
2023/10/27 08:41:29;;;;;;;18.08;7.97;;;;;11.80;94219.00;;;;8363156;28;20644;-68
2023/10/27 08:45:34;;;;;;;12.30;4.28;;;;;11.90;94218.00;;;;8362445;28;20209;-67
2023/10/27 08:49:37;;;;;;;13.48;4.38;;;;;11.90;94220.00;;;;8362528;28;20283;-68
2023/10/27 08:53:41;;;;;;;9.20;4.70;;;;;12.10;94216.00;;;;8362328;28;20206;-67
2023/10/27 08:57:44;;;;;;;13.15;4.70;;;;;12.10;94210.00;;;;8372295;28;20201;-68
2023/10/27 09:01:48;;;;;;;16.58;6.00;;;;;12.20;94216.00;;;;8371176;28;20329;-67
2023/10/27 09:05:52;;;;;;;9.35;4.13;;;;;12.10;94222.00;;;;8364398;28;20645;-68
2023/10/27 09:09:55;;;;;;;10.88;4.55;;;;;12.10;94235.00;;;;8362608;28;20215;-67
2023/10/27 09:13:58;;;;;;;10.35;4.47;;;;;12.10;94237.00;;;;8362144;28;20841;-69
2023/10/27 09:18:03;;;;;;;10.25;4.07;;;;;12.10;94240.00;;;;8362875;28;20189;-67
2023/10/27 09:22:15;;;;;;;8.43;4.22;;;;;12.00;94250.00;;;;8361338;28;20223;-68
2023/10/27 09:26:19;;;;;;;14.45;3.95;;;;;11.90;94257.00;;;;8372332;28;21010;-66
2023/10/27 09:30:29;;;;;;;7.95;3.25;;;;;11.80;94267.00;;;;8371997;28;20299;-67
2023/10/27 09:34:34;;;;;;;11.48;4.13;;;;;11.80;94266.00;;;;8371819;28;20280;-67
2023/10/27 09:38:37;;;;;;;9.60;4.00;;;;;11.80;94269.00;;;;8363511;28;20200;-67
2023/10/27 09:42:41;;;;;;;6.68;3.67;;;;;11.70;94272.00;;;;8370646;28;20326;-67
2023/10/27 09:46:51;;;;;;;7.57;4.05;;;;;11.80;94271.00;;;;8372164;28;20196;-67
2023/10/27 09:51:01;;;;;;;11.65;3.65;;;;;12.00;94270.00;;;;8377026;28;20270;-67
2023/10/27 09:55:05;;;;;;;6.97;3.40;;;;;12.10;94276.00;;;;8369255;28;20294;-68
2023/10/27 09:59:17;;;;;;;9.70;3.35;;;;;12.20;94271.00;;;;8377406;28;20245;-69
2023/10/27 10:03:24;;;;;;;8.38;3.90;;;;;12.40;94275.00;;;;8361964;28;20238;-66
2023/10/27 10:07:33;;;;;;;7.35;3.75;;;;;12.60;94273.00;;;;8371556;28;20338;-69
2023/10/27 10:11:38;;;;;;;4.75;3.20;;;;;12.80;94285.00;;;;8371063;28;20208;-68
2023/10/27 10:15:42;;;;;;;4.38;3.20;;;;;13.00;94282.00;;;;8368615;28;20200;-68
2023/10/27 10:19:49;;;;;;;7.50;2.78;;;;;13.20;94286.00;;;;8363502;28;20228;-68
2023/10/27 10:24:18;;;;;;;3.20;2.67;;;;;13.20;94286.00;;;;8367497;28;20219;-66
2023/10/27 10:28:25;;;;;;;5.47;3.03;;;;;13.20;94279.00;;;;8374929;28;20228;-67
2023/10/27 10:32:33;;;;;;;3.63;2.50;;;;;13.20;94278.00;;;;8367699;28;20199;-68
2023/10/27 10:36:36;;;;;;;5.15;2.80;;;;;13.10;94283.00;;;;8371041;28;20928;-68
2023/10/27 10:40:50;;;;;;;2.40;2.20;;;;;13.20;94283.00;;;;8374706;28;20228;-68
2023/10/27 10:45:01;;;;;;;3.80;2.20;;;;;13.10;94278.00;;;;8381820;28;20216;-67
2023/10/27 10:49:04;;;;;;;3.38;2.63;;;;;13.20;94275.00;;;;8364162;28;20299;-67
2023/10/27 10:53:12;;;;;;;4.70;2.33;;;;;13.70;94267.00;;;;8379981;28;20184;-69
2023/10/27 10:57:20;;;;;;;2.42;1.80;;;;;14.10;94274.00;;;;8363359;28;20230;-69
2023/10/27 11:01:24;;;;;;;1.80;1.70;;;;;14.20;94263.00;;;;8363188;28;20193;-67
2023/10/27 11:05:27;;;;;;;2.55;1.60;;;;;14.10;94262.00;;;;8366305;28;20243;-68
2023/10/27 11:09:32;;;;;;;2.13;1.42;;;;;14.10;94264.00;;;;8364215;28;20208;-68
2023/10/27 11:13:43;;;;;;;1.80;1.52;;;;;14.00;94267.00;;;;8363932;28;20196;-69
2023/10/27 11:17:52;;;;;;;1.42;1.33;;;;;13.90;94262.00;;;;8364752;28;20200;-69
2023/10/27 11:21:56;;;;;;;2.72;1.58;;;;;14.00;94270.00;;;;8371314;28;20223;-68
2023/10/27 11:26:03;;;;;;;1.60;1.30;;;;;13.90;94274.00;;;;8361946;28;20635;-69
2023/10/27 11:30:09;;;;;;;2.22;1.70;;;;;13.80;94272.00;;;;8363330;28;20199;-68
2023/10/27 11:34:14;;;;;;;1.50;1.40;;;;;13.90;94278.00;;;;8359973;28;20197;-68
2023/10/27 11:38:17;;;;;;;2.72;1.10;;;;;14.00;94282.00;;;;8368448;28;20622;-69
2023/10/27 11:42:20;;;;;;;1.90;1.35;;;;;14.10;94288.00;;;;8372356;28;20319;-68
2023/10/27 11:46:25;;;;;;;1.83;1.20;;;;;14.20;94281.00;;;;8361756;28;20199;-67
2023/10/27 11:50:28;;;;;;;1.08;1.08;;;;;14.10;94290.00;;;;8358925;28;20301;-67
2023/10/27 11:54:31;;;;;;;1.60;1.50;;;;;14.00;94291.00;;;;8361002;28;20200;-68
2023/10/27 11:58:34;;;;;;;4.28;1.33;;;;;14.00;94301.00;;;;8358141;28;20480;-65
2023/10/27 12:02:39;;;;;;;6.65;3.42;;;;;14.10;94299.00;;;;8360402;28;20224;-66
2023/10/27 12:06:43;;;;;;;22.05;6.10;;;;;14.00;94300.00;;;;8365630;28;20200;-66
2023/10/27 12:10:46;;;;;;;87.43;13.75;;;;;13.90;94303.00;;;;8361184;28;20972;-66
2023/10/27 12:14:51;;;;;;;7.28;6.50;;;;;13.80;94307.00;;;;8356656;28;20196;-66
2023/10/27 12:18:57;;;;;;;262.23;219.68;;;;;13.80;94305.00;;;;8360380;28;20208;-66
2023/10/27 12:23:00;;;;;;;12.27;11.13;;;;;13.80;94313.00;;;;8373190;28;20232;-66
2023/10/27 12:27:04;;;;;;;17.67;16.13;;;;;13.80;94318.00;;;;8354392;28;20224;-65
2023/10/27 12:31:07;;;;;;;2.80;2.58;;;;;13.90;94313.00;;;;8351400;28;20197;-66
2023/10/27 12:35:12;;;;;;;2.78;2.13;;;;;13.90;94312.00;;;;8358411;28;20200;-65
2023/10/27 12:39:16;;;;;;;2.47;1.50;;;;;13.90;94313.00;;;;8360420;28;20641;-65
2023/10/27 12:43:19;;;;;;;1.88;1.77;;;;;13.80;94315.00;;;;8355455;28;20373;-66
2023/10/27 12:47:22;;;;;;;5.20;1.55;;;;;13.50;94321.00;;;;8358807;28;20228;-66
2023/10/27 12:51:27;;;;;;;16.17;14.45;;;;;13.10;94320.00;;;;8367472;28;20201;-65
2023/10/27 12:55:30;;;;;;;5.35;1.52;;;;;12.90;94317.00;;;;8357470;28;20201;-65
2023/10/27 12:59:38;;;;;;;2.03;1.38;;;;;12.50;94334.00;;;;8359267;28;20208;-65
2023/10/27 13:03:41;;;;;;;2.78;1.20;;;;;12.10;94336.00;;;;8358268;28;20670;-64
2023/10/27 13:07:45;;;;;;;5.43;3.42;;;;;12.00;94335.00;;;;8355327;28;20204;-64
2023/10/27 13:11:49;;;;;;;3.47;1.38;;;;;12.00;94349.00;;;;8357215;28;20200;-65
2023/10/27 13:15:52;;;;;;;1.00;1.00;;;;;11.90;94346.00;;;;8355071;28;20270;-65
2023/10/27 13:19:55;;;;;;;2.15;1.35;;;;;11.80;94350.00;;;;8358148;28;20639;-66
2023/10/27 13:24:00;;;;;;;2.28;2.17;;;;;11.90;94366.00;;;;8357957;28;20345;-66
2023/10/27 13:28:03;;;;;;;4.60;4.03;;;;;12.00;94367.00;;;;8359159;28;20290;-65
2023/10/27 13:32:08;;;;;;;3.08;1.73;;;;;12.00;94373.00;;;;8350340;28;20295;-66
2023/10/27 13:36:11;;;;;;;4.05;3.45;;;;;12.00;94385.00;;;;8353164;28;20200;-67
2023/10/27 13:40:18;;;;;;;5.85;5.32;;;;;11.90;94375.00;;;;8352800;28;20221;-63
2023/10/27 13:44:22;;;;;;;1.88;1.40;;;;;11.80;94376.00;;;;8362061;28;20693;-64
2023/10/27 13:48:25;;;;;;;2.65;1.33;;;;;11.80;94375.00;;;;8354864;28;20220;-65
2023/10/27 13:52:28;;;;;;;1.40;1.30;;;;;11.70;94387.00;;;;8357985;28;20291;-65
2023/10/27 13:56:34;;;;;;;7.85;4.10;;;;;11.60;94398.00;;;;8362680;28;20234;-66
2023/10/27 14:00:39;;;;;;;3.83;1.80;;;;;11.60;94411.00;;;;8353865;28;20197;-66
2023/10/27 14:04:42;;;;;;;2.40;1.75;;;;;11.60;94405.00;;;;8350585;28;20231;-66
2023/10/27 14:08:46;;;;;;;5.47;3.17;;;;;11.60;94413.00;;;;8349872;28;20211;-66
2023/10/27 14:12:50;;;;;;;1.58;1.38;;;;;11.50;94424.00;;;;8360637;28;20283;-67
2023/10/27 14:16:54;;;;;;;1.73;1.40;;;;;11.50;94423.00;;;;8374422;28;20204;-66
2023/10/27 14:21:00;;;;;;;3.22;1.40;;;;;11.50;94445.00;;;;8357697;28;20518;-66
2023/10/27 14:25:05;;;;;;;3.90;2.10;;;;;11.60;94445.00;;;;8362333;28;20235;-67
2023/10/27 14:29:10;;;;;;;2.83;1.35;;;;;11.70;94453.00;;;;8362527;28;20214;-66
2023/10/27 14:33:13;;;;;;;2.80;1.52;;;;;11.70;94462.00;;;;8359941;28;20263;-66
2023/10/27 14:37:17;;;;;;;2.45;1.10;;;;;11.70;94446.00;;;;8361690;28;20231;-66
2023/10/27 14:41:22;;;;;;;4.47;1.85;;;;;11.60;94453.00;;;;8364885;28;20289;-66
2023/10/27 14:45:27;;;;;;;1.55;1.45;;;;;11.70;94458.00;;;;8362119;28;20252;-66
2023/10/27 14:49:30;;;;;;;3.13;1.40;;;;;11.80;94463.00;;;;8367936;28;20325;-67
2023/10/27 14:53:33;;;;;;;2.20;1.50;;;;;11.80;94475.00;;;;8363415;28;20205;-67
2023/10/27 14:57:37;;;;;;;1.83;1.25;;;;;11.90;94479.00;;;;8361282;28;20201;-67
2023/10/27 15:01:42;;;;;;;1.85;1.38;;;;;11.90;94473.00;;;;8362140;28;20218;-66
2023/10/27 15:05:45;;;;;;;1.30;1.20;;;;;12.00;94481.00;;;;8367377;28;20227;-66
2023/10/27 15:09:49;;;;;;;2.22;1.55;;;;;12.00;94473.00;;;;8367644;28;20972;-65
2023/10/27 15:13:52;;;;;;;2.35;1.10;;;;;12.00;94473.00;;;;8368409;28;20209;-67
2023/10/27 15:17:57;;;;;;;6.70;1.63;;;;;12.00;94472.00;;;;8364986;28;20200;-66
2023/10/27 15:22:00;;;;;;;6.07;1.35;;;;;12.00;94480.00;;;;8328396;28;20241;-66
2023/10/27 15:26:05;;;;;;;1.77;1.17;;;;;12.10;94487.00;;;;8284594;28;20225;-67
2023/10/27 15:30:09;;;;;;;2.55;1.50;;;;;12.00;94482.00;;;;8282724;28;20198;-66
2023/10/27 15:34:14;;;;;;;2.65;1.40;;;;;12.00;94488.00;;;;8282451;28;20201;-66
2023/10/27 15:38:18;;;;;;;3.88;1.25;;;;;12.00;94495.00;;;;8257734;28;20245;-66
2023/10/27 15:42:22;;;;;;;2.75;1.17;;;;;12.00;94498.00;;;;8249592;28;20203;-66
2023/10/27 15:46:25;;;;;;;4.78;1.70;;;;;12.00;94500.00;;;;8247838;28;20251;-67
2023/10/27 15:50:31;;;;;;;9.27;2.17;;;;;12.00;94514.00;;;;8252001;28;20277;-66
2023/10/27 15:54:34;;;;;;;4.00;1.60;;;;;11.90;94518.00;;;;8251032;28;20873;-66
2023/10/27 15:58:37;;;;;;;4.45;1.80;;;;;11.80;94518.00;;;;8250574;28;20278;-66
2023/10/27 16:02:40;;;;;;;3.10;1.65;;;;;11.80;94520.00;;;;8249312;28;20260;-65
2023/10/27 16:06:45;;;;;;;6.22;1.50;;;;;11.70;94520.00;;;;8248628;28;20234;-66
2023/10/27 16:10:48;;;;;;;5.03;1.73;;;;;11.70;94527.00;;;;8244981;28;20208;-66
2023/10/27 16:14:53;;;;;;;5.50;1.60;;;;;11.70;94534.00;;;;8239040;28;20211;-64
2023/10/27 16:18:57;;;;;;;4.40;1.92;;;;;11.60;94539.00;;;;8243579;28;20855;-65
2023/10/27 16:23:04;;;;;;;1.75;1.65;;;;;11.60;94531.00;;;;8244910;28;20254;-66
2023/10/27 16:27:08;;;;;;;7.18;1.90;;;;;11.60;94535.00;;;;8249404;28;21721;-65
2023/10/27 16:31:11;;;;;;;2.63;1.77;;;;;11.70;94544.00;;;;8246006;28;20512;-65
2023/10/27 16:35:14;;;;;;;3.05;2.20;;;;;11.60;94544.00;;;;8255351;28;20204;-65
2023/10/27 16:39:18;;;;;;;1.60;1.50;;;;;11.60;94547.00;;;;8249414;28;20301;-66
2023/10/27 16:43:22;;;;;;;2.60;1.90;;;;;11.60;94555.00;;;;8254862;28;20309;-65
2023/10/27 16:47:25;;;;;;;2.58;2.03;;;;;11.60;94561.00;;;;8252474;28;20291;-65
2023/10/27 16:51:29;;;;;;;4.93;2.30;;;;;11.60;94567.00;;;;8249443;28;20196;-65
2023/10/27 16:55:33;;;;;;;5.85;2.80;;;;;11.60;94565.00;;;;8249860;28;20207;-66
2023/10/27 16:59:37;;;;;;;6.97;2.55;;;;;11.60;94574.00;;;;8246009;28;20209;-67
2023/10/27 17:03:42;;;;;;;4.18;2.10;;;;;11.50;94581.00;;;;8244622;28;20968;-66
2023/10/27 17:07:45;;;;;;;3.45;1.98;;;;;11.50;94585.00;;;;8252777;28;20680;-67
2023/10/27 17:11:53;;;;;;;5.03;2.50;;;;;11.40;94584.00;;;;8257237;28;20219;-67
2023/10/27 17:16:05;;;;;;;5.55;2.00;;;;;11.40;94595.00;;;;8252836;28;20239;-66
2023/10/27 17:20:09;;;;;;;8.10;2.70;;;;;11.50;94605.00;;;;8244897;28;20336;-69
2023/10/27 17:24:19;;;;;;;5.30;2.20;;;;;11.50;94603.00;;;;8243683;28;20312;-67
2023/10/27 17:28:24;;;;;;;4.13;1.80;;;;;11.50;94611.00;;;;8248260;28;20695;-67
2023/10/27 17:32:27;;;;;;;10.90;2.30;;;;;11.40;94614.00;;;;8239797;28;20213;-66
2023/10/27 17:36:37;;;;;;;3.38;2.13;;;;;11.30;94619.00;;;;8245153;28;21128;-66
2023/10/27 17:40:40;;;;;;;3.28;1.88;;;;;11.30;94614.00;;;;8240942;28;20203;-66
2023/10/27 17:44:45;;;;;;;4.30;1.80;;;;;11.30;94610.00;;;;8242526;28;20230;-66
2023/10/27 17:48:48;;;;;;;4.65;2.33;;;;;11.30;94611.00;;;;8251226;28;20200;-66
2023/10/27 17:52:52;;;;;;;6.70;2.08;;;;;11.30;94620.00;;;;8254120;28;20207;-65
2023/10/27 17:56:55;;;;;;;2.70;1.98;;;;;11.30;94625.00;;;;8254549;28;20209;-64
2023/10/27 18:01:05;;;;;;;3.97;2.22;;;;;11.30;94625.00;;;;8251023;28;20208;-66
2023/10/27 18:05:10;;;;;;;5.38;2.00;;;;;11.30;94626.00;;;;8261186;28;20961;-65
2023/10/27 18:09:13;;;;;;;5.28;2.10;;;;;11.10;94632.00;;;;8255682;28;20257;-64
2023/10/27 18:13:16;;;;;;;6.07;2.03;;;;;11.00;94624.00;;;;8258025;28;20234;-65
2023/10/27 18:17:23;;;;;;;4.07;2.25;;;;;10.90;94629.00;;;;8260366;28;20205;-65
2023/10/27 18:21:26;;;;;;;10.75;4.35;;;;;10.70;94620.00;;;;8249810;28;20563;-65
2023/10/27 18:25:30;;;;;;;11.13;5.70;;;;;10.50;94625.00;;;;8253222;28;20341;-65
2023/10/27 18:29:33;;;;;;;6.90;3.20;;;;;10.30;94620.00;;;;8253688;28;20741;-65
2023/10/27 18:33:38;;;;;;;9.43;2.60;;;;;10.20;94629.00;;;;8250625;28;20210;-66
2023/10/27 18:37:41;;;;;;;8.57;2.67;;;;;10.10;94633.00;;;;8254227;28;20202;-65
2023/10/27 18:41:44;;;;;;;7.85;3.13;;;;;10.00;94628.00;;;;8251376;28;20198;-66
2023/10/27 18:45:56;;;;;;;6.70;3.58;;;;;10.00;94631.00;;;;8252641;28;20697;-66
2023/10/27 18:50:00;;;;;;;12.73;6.00;;;;;9.90;94621.00;;;;8248586;28;20215;-66
2023/10/27 18:54:05;;;;;;;5.80;4.03;;;;;10.00;94634.00;;;;8254192;28;20207;-65
2023/10/27 18:58:08;;;;;;;7.10;3.40;;;;;10.10;94639.00;;;;8253658;28;20964;-66
2023/10/27 19:02:11;;;;;;;6.72;2.50;;;;;10.30;94641.00;;;;8249673;28;20229;-65
2023/10/27 19:06:18;;;;;;;3.20;2.10;;;;;10.40;94634.00;;;;8252925;28;20234;-66
2023/10/27 19:10:24;;;;;;;6.53;2.28;;;;;10.40;94634.00;;;;8244832;28;20206;-66
2023/10/27 19:14:27;;;;;;;6.53;2.80;;;;;10.40;94637.00;;;;8249672;28;20276;-67
2023/10/27 19:18:31;;;;;;;1.88;1.77;;;;;10.30;94642.00;;;;8246256;28;20202;-66
2023/10/27 19:22:36;;;;;;;2.28;1.42;;;;;10.30;94656.00;;;;8241680;28;20250;-66
2023/10/27 19:26:39;;;;;;;3.42;1.77;;;;;10.20;94650.00;;;;8246875;28;20227;-67
2023/10/27 19:30:48;;;;;;;1.80;1.70;;;;;10.20;94658.00;;;;8249794;28;20199;-67
2023/10/27 19:34:51;;;;;;;3.35;2.70;;;;;10.10;94662.00;;;;8244794;28;20227;-66
2023/10/27 19:38:56;;;;;;;2.90;2.25;;;;;10.10;94670.00;;;;8251178;28;20265;-67
2023/10/27 19:42:59;;;;;;;5.03;2.88;;;;;10.10;94663.00;;;;8250715;28;20297;-66
2023/10/27 19:47:03;;;;;;;2.80;1.92;;;;;10.10;94672.00;;;;8244104;28;20324;-67
2023/10/27 19:51:07;;;;;;;3.80;2.22;;;;;10.20;94682.00;;;;8246992;28;20229;-65
2023/10/27 19:55:14;;;;;;;5.57;3.20;;;;;10.30;94684.00;;;;8250512;28;20204;-66
2023/10/27 19:59:18;;;;;;;4.75;3.00;;;;;10.30;94694.00;;;;8245475;28;20196;-67
2023/10/27 20:03:21;;;;;;;5.25;2.10;;;;;10.30;94697.00;;;;8245052;28;20230;-66
2023/10/27 20:07:24;;;;;;;4.35;2.10;;;;;10.30;94692.00;;;;8250900;28;20315;-65
2023/10/27 20:11:29;;;;;;;2.10;1.85;;;;;10.40;94697.00;;;;8249995;28;20655;-66